TAF KSEA
KSEA 090520Z 0906/1012 24008KT P6SM BKN020 BKN040 TEMPO 0908/0912 BKN020 FM091200 20008KT P6SM BKN020 OVC030 FM091500 20006KT P6SM VCSH OVC018=
METAR KSEA
WC KSEA
WS KSEA
WV KSEA